sensor_id;sensor_type;location;lat;lon;timestamp;P1;durP1;ratioP1;P2;durP2;ratioP2
66567;SDS011;53422;49.296;6.900;2022-08-19T00:00:12;16.75;;;8.93;;
66567;SDS011;53422;49.296;6.900;2022-08-19T00:02:42;18.17;;;8.88;;
66567;SDS011;53422;49.296;6.900;2022-08-19T00:05:09;16.23;;;8.73;;
66567;SDS011;53422;49.296;6.900;2022-08-19T00:07:36;16.70;;;9.73;;
66567;SDS011;53422;49.296;6.900;2022-08-19T00:10:03;17.35;;;8.82;;
66567;SDS011;53422;49.296;6.900;2022-08-19T00:12:31;15.77;;;8.82;;
66567;SDS011;53422;49.296;6.900;2022-08-19T00:14:57;14.20;;;7.68;;
66567;SDS011;53422;49.296;6.900;2022-08-19T00:17:22;16.85;;;7.95;;
66567;SDS011;53422;49.296;6.900;2022-08-19T00:19:48;15.80;;;8.75;;
66567;SDS011;53422;49.296;6.900;2022-08-19T00:22:13;15.45;;;8.10;;
66567;SDS011;53422;49.296;6.900;2022-08-19T00:24:40;14.48;;;8.20;;
66567;SDS011;53422;49.296;6.900;2022-08-19T00:27:08;15.93;;;7.88;;
66567;SDS011;53422;49.296;6.900;2022-08-19T00:29:34;14.82;;;8.40;;
66567;SDS011;53422;49.296;6.900;2022-08-19T00:32:00;18.27;;;8.07;;
66567;SDS011;53422;49.296;6.900;2022-08-19T00:34:26;15.70;;;9.00;;
66567;SDS011;53422;49.296;6.900;2022-08-19T00:36:55;14.48;;;8.55;;
66567;SDS011;53422;49.296;6.900;2022-08-19T00:39:21;15.20;;;8.32;;
66567;SDS011;53422;49.296;6.900;2022-08-19T00:41:47;15.90;;;8.35;;
66567;SDS011;53422;49.296;6.900;2022-08-19T00:44:24;13.98;;;7.97;;
66567;SDS011;53422;49.296;6.900;2022-08-19T00:46:52;15.98;;;8.57;;
66567;SDS011;53422;49.296;6.900;2022-08-19T00:51:50;14.50;;;8.02;;
66567;SDS011;53422;49.296;6.900;2022-08-19T00:54:20;14.65;;;8.65;;
66567;SDS011;53422;49.296;6.900;2022-08-19T00:56:47;13.80;;;7.88;;
66567;SDS011;53422;49.296;6.900;2022-08-19T00:59:14;16.58;;;9.38;;
66567;SDS011;53422;49.296;6.900;2022-08-19T01:01:42;14.27;;;7.65;;
66567;SDS011;53422;49.296;6.900;2022-08-19T01:04:09;14.48;;;8.45;;
66567;SDS011;53422;49.296;6.900;2022-08-19T01:06:35;13.48;;;7.93;;
66567;SDS011;53422;49.296;6.900;2022-08-19T01:09:02;12.88;;;7.68;;
66567;SDS011;53422;49.296;6.900;2022-08-19T01:11:28;13.05;;;7.43;;
66567;SDS011;53422;49.296;6.900;2022-08-19T01:13:59;14.25;;;8.35;;
66567;SDS011;53422;49.296;6.900;2022-08-19T01:16:25;13.88;;;7.75;;
66567;SDS011;53422;49.296;6.900;2022-08-19T01:18:53;13.02;;;7.53;;
66567;SDS011;53422;49.296;6.900;2022-08-19T01:21:32;14.15;;;8.20;;
66567;SDS011;53422;49.296;6.900;2022-08-19T01:24:03;12.60;;;7.50;;
66567;SDS011;53422;49.296;6.900;2022-08-19T01:26:29;14.10;;;7.70;;
66567;SDS011;53422;49.296;6.900;2022-08-19T01:28:57;14.95;;;7.05;;
66567;SDS011;53422;49.296;6.900;2022-08-19T01:31:25;13.50;;;7.47;;
66567;SDS011;53422;49.296;6.900;2022-08-19T01:33:52;12.73;;;7.68;;
66567;SDS011;53422;49.296;6.900;2022-08-19T01:36:31;12.25;;;7.05;;
66567;SDS011;53422;49.296;6.900;2022-08-19T01:41:33;14.10;;;7.47;;
66567;SDS011;53422;49.296;6.900;2022-08-19T01:43:59;12.77;;;7.22;;
66567;SDS011;53422;49.296;6.900;2022-08-19T01:46:28;12.80;;;7.68;;
66567;SDS011;53422;49.296;6.900;2022-08-19T01:48:54;14.38;;;7.53;;
66567;SDS011;53422;49.296;6.900;2022-08-19T01:51:20;13.00;;;7.05;;
66567;SDS011;53422;49.296;6.900;2022-08-19T01:53:49;12.75;;;7.05;;
66567;SDS011;53422;49.296;6.900;2022-08-19T01:56:16;12.40;;;7.60;;
66567;SDS011;53422;49.296;6.900;2022-08-19T01:58:44;12.20;;;6.85;;
66567;SDS011;53422;49.296;6.900;2022-08-19T02:01:17;15.35;;;7.28;;
66567;SDS011;53422;49.296;6.900;2022-08-19T02:03:44;10.43;;;6.68;;
66567;SDS011;53422;49.296;6.900;2022-08-19T02:06:10;14.02;;;7.30;;
66567;SDS011;53422;49.296;6.900;2022-08-19T02:08:37;11.85;;;6.57;;
66567;SDS011;53422;49.296;6.900;2022-08-19T02:11:04;14.02;;;6.80;;
66567;SDS011;53422;49.296;6.900;2022-08-19T02:13:30;12.80;;;6.72;;
66567;SDS011;53422;49.296;6.900;2022-08-19T02:15:56;11.27;;;6.63;;
66567;SDS011;53422;49.296;6.900;2022-08-19T02:18:22;10.25;;;6.75;;
66567;SDS011;53422;49.296;6.900;2022-08-19T02:20:48;11.73;;;6.43;;
66567;SDS011;53422;49.296;6.900;2022-08-19T02:23:14;11.45;;;6.82;;
66567;SDS011;53422;49.296;6.900;2022-08-19T02:25:42;12.38;;;6.70;;
66567;SDS011;53422;49.296;6.900;2022-08-19T02:30:34;11.20;;;6.47;;
66567;SDS011;53422;49.296;6.900;2022-08-19T02:33:00;11.88;;;6.95;;
66567;SDS011;53422;49.296;6.900;2022-08-19T02:35:26;10.85;;;7.10;;
66567;SDS011;53422;49.296;6.900;2022-08-19T02:37:51;12.63;;;7.43;;
66567;SDS011;53422;49.296;6.900;2022-08-19T02:40:59;13.70;;;7.47;;
66567;SDS011;53422;49.296;6.900;2022-08-19T02:43:29;13.18;;;7.55;;
66567;SDS011;53422;49.296;6.900;2022-08-19T02:45:56;12.77;;;6.63;;
66567;SDS011;53422;49.296;6.900;2022-08-19T02:48:23;12.70;;;7.25;;
66567;SDS011;53422;49.296;6.900;2022-08-19T02:50:50;12.90;;;7.30;;
66567;SDS011;53422;49.296;6.900;2022-08-19T02:53:24;12.23;;;6.95;;
66567;SDS011;53422;49.296;6.900;2022-08-19T02:55:52;13.80;;;8.02;;
66567;SDS011;53422;49.296;6.900;2022-08-19T02:58:18;13.88;;;7.85;;
66567;SDS011;53422;49.296;6.900;2022-08-19T03:00:46;11.85;;;7.30;;
66567;SDS011;53422;49.296;6.900;2022-08-19T03:03:15;15.30;;;7.65;;
66567;SDS011;53422;49.296;6.900;2022-08-19T03:05:41;13.00;;;7.60;;
66567;SDS011;53422;49.296;6.900;2022-08-19T03:08:07;14.73;;;7.22;;
66567;SDS011;53422;49.296;6.900;2022-08-19T03:10:41;12.85;;;7.38;;
66567;SDS011;53422;49.296;6.900;2022-08-19T03:13:09;15.38;;;7.72;;
66567;SDS011;53422;49.296;6.900;2022-08-19T03:15:39;12.77;;;7.57;;
66567;SDS011;53422;49.296;6.900;2022-08-19T03:18:06;12.50;;;7.00;;
66567;SDS011;53422;49.296;6.900;2022-08-19T03:20:31;13.10;;;6.82;;
66567;SDS011;53422;49.296;6.900;2022-08-19T03:22:57;12.07;;;7.30;;
66567;SDS011;53422;49.296;6.900;2022-08-19T03:25:23;12.20;;;6.78;;
66567;SDS011;53422;49.296;6.900;2022-08-19T03:27:49;11.73;;;7.43;;
66567;SDS011;53422;49.296;6.900;2022-08-19T03:30:15;11.65;;;7.32;;
66567;SDS011;53422;49.296;6.900;2022-08-19T03:32:40;13.30;;;7.45;;
66567;SDS011;53422;49.296;6.900;2022-08-19T03:35:06;13.02;;;6.90;;
66567;SDS011;53422;49.296;6.900;2022-08-19T03:37:32;12.52;;;6.50;;
66567;SDS011;53422;49.296;6.900;2022-08-19T03:39:57;11.60;;;6.85;;
66567;SDS011;53422;49.296;6.900;2022-08-19T03:42:23;12.60;;;7.53;;
66567;SDS011;53422;49.296;6.900;2022-08-19T03:44:51;11.27;;;7.05;;
66567;SDS011;53422;49.296;6.900;2022-08-19T03:47:17;11.98;;;7.10;;
66567;SDS011;53422;49.296;6.900;2022-08-19T03:49:43;12.38;;;6.93;;
66567;SDS011;53422;49.296;6.900;2022-08-19T03:52:09;11.65;;;7.03;;
66567;SDS011;53422;49.296;6.900;2022-08-19T03:54:35;11.38;;;6.55;;
66567;SDS011;53422;49.296;6.900;2022-08-19T03:57:02;12.90;;;6.65;;
66567;SDS011;53422;49.296;6.900;2022-08-19T03:59:31;11.43;;;6.65;;
66567;SDS011;53422;49.296;6.900;2022-08-19T04:01:59;12.82;;;7.25;;
66567;SDS011;53422;49.296;6.900;2022-08-19T04:04:26;13.60;;;6.90;;
66567;SDS011;53422;49.296;6.900;2022-08-19T04:06:51;11.93;;;6.95;;
66567;SDS011;53422;49.296;6.900;2022-08-19T04:09:17;12.02;;;6.85;;
66567;SDS011;53422;49.296;6.900;2022-08-19T04:11:45;11.38;;;6.47;;
66567;SDS011;53422;49.296;6.900;2022-08-19T04:14:18;12.95;;;7.35;;
66567;SDS011;53422;49.296;6.900;2022-08-19T04:16:46;11.70;;;7.10;;
66567;SDS011;53422;49.296;6.900;2022-08-19T04:19:13;11.75;;;6.90;;
66567;SDS011;53422;49.296;6.900;2022-08-19T04:21:40;12.65;;;6.82;;
66567;SDS011;53422;49.296;6.900;2022-08-19T04:24:08;13.85;;;7.72;;
66567;SDS011;53422;49.296;6.900;2022-08-19T04:26:35;11.90;;;7.28;;
66567;SDS011;53422;49.296;6.900;2022-08-19T04:29:03;11.27;;;7.18;;
66567;SDS011;53422;49.296;6.900;2022-08-19T04:31:31;11.60;;;7.15;;
66567;SDS011;53422;49.296;6.900;2022-08-19T04:34:00;12.63;;;7.07;;
66567;SDS011;53422;49.296;6.900;2022-08-19T04:36:28;10.65;;;6.72;;
66567;SDS011;53422;49.296;6.900;2022-08-19T04:38:56;11.52;;;6.70;;
66567;SDS011;53422;49.296;6.900;2022-08-19T04:41:24;11.68;;;6.80;;
66567;SDS011;53422;49.296;6.900;2022-08-19T04:44:09;11.35;;;6.72;;
66567;SDS011;53422;49.296;6.900;2022-08-19T04:46:36;10.20;;;6.57;;
66567;SDS011;53422;49.296;6.900;2022-08-19T04:49:02;13.85;;;7.25;;
66567;SDS011;53422;49.296;6.900;2022-08-19T04:51:30;9.93;;;6.00;;
66567;SDS011;53422;49.296;6.900;2022-08-19T04:53:57;9.80;;;6.30;;
66567;SDS011;53422;49.296;6.900;2022-08-19T04:56:24;13.68;;;7.18;;
66567;SDS011;53422;49.296;6.900;2022-08-19T04:58:51;11.82;;;6.88;;
66567;SDS011;53422;49.296;6.900;2022-08-19T05:01:21;12.65;;;7.15;;
66567;SDS011;53422;49.296;6.900;2022-08-19T05:03:48;14.15;;;7.30;;
66567;SDS011;53422;49.296;6.900;2022-08-19T05:06:15;11.88;;;7.15;;
66567;SDS011;53422;49.296;6.900;2022-08-19T05:08:43;10.85;;;6.53;;
66567;SDS011;53422;49.296;6.900;2022-08-19T05:11:13;11.73;;;7.15;;
66567;SDS011;53422;49.296;6.900;2022-08-19T05:13:45;13.30;;;7.28;;
66567;SDS011;53422;49.296;6.900;2022-08-19T05:16:12;12.13;;;6.93;;
66567;SDS011;53422;49.296;6.900;2022-08-19T05:18:39;15.90;;;7.95;;
66567;SDS011;53422;49.296;6.900;2022-08-19T05:21:24;12.40;;;7.35;;
66567;SDS011;53422;49.296;6.900;2022-08-19T05:24:08;13.68;;;6.70;;
66567;SDS011;53422;49.296;6.900;2022-08-19T05:26:38;13.05;;;6.80;;
66567;SDS011;53422;49.296;6.900;2022-08-19T05:29:05;10.80;;;6.45;;
66567;SDS011;53422;49.296;6.900;2022-08-19T05:31:32;12.70;;;6.68;;
66567;SDS011;53422;49.296;6.900;2022-08-19T05:33:58;9.73;;;6.07;;
66567;SDS011;53422;49.296;6.900;2022-08-19T05:36:24;10.43;;;6.53;;
66567;SDS011;53422;49.296;6.900;2022-08-19T05:38:51;11.40;;;6.47;;
66567;SDS011;53422;49.296;6.900;2022-08-19T05:41:18;12.70;;;7.35;;
66567;SDS011;53422;49.296;6.900;2022-08-19T05:43:45;13.38;;;7.47;;
66567;SDS011;53422;49.296;6.900;2022-08-19T05:46:16;14.45;;;7.20;;
66567;SDS011;53422;49.296;6.900;2022-08-19T05:48:45;14.52;;;7.30;;
66567;SDS011;53422;49.296;6.900;2022-08-19T05:51:11;12.00;;;7.00;;
66567;SDS011;53422;49.296;6.900;2022-08-19T05:53:37;11.18;;;7.00;;
66567;SDS011;53422;49.296;6.900;2022-08-19T05:56:07;12.75;;;7.20;;
66567;SDS011;53422;49.296;6.900;2022-08-19T05:58:34;13.75;;;6.97;;
66567;SDS011;53422;49.296;6.900;2022-08-19T06:01:01;13.60;;;6.95;;
66567;SDS011;53422;49.296;6.900;2022-08-19T06:03:30;13.38;;;6.80;;
66567;SDS011;53422;49.296;6.900;2022-08-19T06:05:58;12.02;;;6.93;;
66567;SDS011;53422;49.296;6.900;2022-08-19T06:08:24;10.68;;;6.53;;
66567;SDS011;53422;49.296;6.900;2022-08-19T06:10:51;10.70;;;6.50;;
66567;SDS011;53422;49.296;6.900;2022-08-19T06:13:18;10.23;;;6.65;;
66567;SDS011;53422;49.296;6.900;2022-08-19T06:15:44;12.45;;;6.65;;
66567;SDS011;53422;49.296;6.900;2022-08-19T06:18:11;11.77;;;5.95;;
66567;SDS011;53422;49.296;6.900;2022-08-19T06:20:37;14.32;;;7.15;;
66567;SDS011;53422;49.296;6.900;2022-08-19T06:23:03;11.43;;;6.40;;
66567;SDS011;53422;49.296;6.900;2022-08-19T06:25:28;10.82;;;6.93;;
66567;SDS011;53422;49.296;6.900;2022-08-19T06:27:55;11.48;;;7.07;;
66567;SDS011;53422;49.296;6.900;2022-08-19T06:30:21;10.30;;;6.45;;
66567;SDS011;53422;49.296;6.900;2022-08-19T06:32:46;12.00;;;7.32;;
66567;SDS011;53422;49.296;6.900;2022-08-19T06:35:12;10.23;;;6.78;;
66567;SDS011;53422;49.296;6.900;2022-08-19T06:37:39;10.80;;;7.32;;
66567;SDS011;53422;49.296;6.900;2022-08-19T06:40:06;9.80;;;6.07;;
66567;SDS011;53422;49.296;6.900;2022-08-19T06:42:34;13.75;;;6.63;;
66567;SDS011;53422;49.296;6.900;2022-08-19T06:45:00;13.20;;;6.60;;
66567;SDS011;53422;49.296;6.900;2022-08-19T06:47:28;12.15;;;6.38;;
66567;SDS011;53422;49.296;6.900;2022-08-19T06:49:57;14.38;;;7.03;;
66567;SDS011;53422;49.296;6.900;2022-08-19T06:52:30;13.05;;;6.75;;
66567;SDS011;53422;49.296;6.900;2022-08-19T06:54:57;12.10;;;6.13;;
66567;SDS011;53422;49.296;6.900;2022-08-19T06:57:24;12.90;;;6.63;;
66567;SDS011;53422;49.296;6.900;2022-08-19T06:59:50;18.55;;;6.65;;
66567;SDS011;53422;49.296;6.900;2022-08-19T07:02:18;13.70;;;6.63;;
66567;SDS011;53422;49.296;6.900;2022-08-19T07:04:45;12.95;;;7.40;;
66567;SDS011;53422;49.296;6.900;2022-08-19T07:07:13;15.63;;;7.55;;
66567;SDS011;53422;49.296;6.900;2022-08-19T07:09:40;13.73;;;7.25;;
66567;SDS011;53422;49.296;6.900;2022-08-19T07:12:09;14.50;;;6.80;;
66567;SDS011;53422;49.296;6.900;2022-08-19T07:14:37;14.73;;;6.72;;
66567;SDS011;53422;49.296;6.900;2022-08-19T07:17:05;15.55;;;7.63;;
66567;SDS011;53422;49.296;6.900;2022-08-19T07:19:33;11.80;;;6.75;;
66567;SDS011;53422;49.296;6.900;2022-08-19T07:22:01;14.85;;;7.05;;
66567;SDS011;53422;49.296;6.900;2022-08-19T07:26:55;13.20;;;6.05;;
66567;SDS011;53422;49.296;6.900;2022-08-19T07:29:25;12.25;;;7.03;;
66567;SDS011;53422;49.296;6.900;2022-08-19T07:31:52;13.10;;;6.68;;
66567;SDS011;53422;49.296;6.900;2022-08-19T07:34:21;13.82;;;6.55;;
66567;SDS011;53422;49.296;6.900;2022-08-19T07:36:49;15.40;;;6.88;;
66567;SDS011;53422;49.296;6.900;2022-08-19T07:39:22;14.27;;;6.60;;
66567;SDS011;53422;49.296;6.900;2022-08-19T07:41:50;13.60;;;6.50;;
66567;SDS011;53422;49.296;6.900;2022-08-19T07:44:16;14.73;;;7.72;;
66567;SDS011;53422;49.296;6.900;2022-08-19T07:46:45;14.07;;;6.55;;
66567;SDS011;53422;49.296;6.900;2022-08-19T07:49:14;13.70;;;7.90;;
66567;SDS011;53422;49.296;6.900;2022-08-19T07:51:55;11.68;;;6.60;;
66567;SDS011;53422;49.296;6.900;2022-08-19T07:54:26;13.18;;;6.93;;
66567;SDS011;53422;49.296;6.900;2022-08-19T07:56:55;12.35;;;6.75;;
66567;SDS011;53422;49.296;6.900;2022-08-19T07:59:21;13.85;;;6.40;;
66567;SDS011;53422;49.296;6.900;2022-08-19T08:01:47;13.93;;;7.28;;
66567;SDS011;53422;49.296;6.900;2022-08-19T08:04:15;13.38;;;6.90;;
66567;SDS011;53422;49.296;6.900;2022-08-19T08:07:00;14.43;;;8.07;;
66567;SDS011;53422;49.296;6.900;2022-08-19T08:09:44;13.95;;;7.28;;
66567;SDS011;53422;49.296;6.900;2022-08-19T08:12:12;13.75;;;8.43;;
66567;SDS011;53422;49.296;6.900;2022-08-19T08:17:12;13.80;;;7.20;;
66567;SDS011;53422;49.296;6.900;2022-08-19T08:19:43;13.52;;;7.60;;
66567;SDS011;53422;49.296;6.900;2022-08-19T08:22:09;15.23;;;8.13;;
66567;SDS011;53422;49.296;6.900;2022-08-19T08:24:56;15.57;;;7.70;;
66567;SDS011;53422;49.296;6.900;2022-08-19T08:30:03;13.77;;;8.35;;
66567;SDS011;53422;49.296;6.900;2022-08-19T08:32:34;16.15;;;9.15;;
66567;SDS011;53422;49.296;6.900;2022-08-19T08:35:04;14.30;;;9.50;;
66567;SDS011;53422;49.296;6.900;2022-08-19T08:37:31;17.73;;;9.68;;
66567;SDS011;53422;49.296;6.900;2022-08-19T08:39:57;14.82;;;9.95;;
66567;SDS011;53422;49.296;6.900;2022-08-19T08:42:27;14.65;;;9.48;;
66567;SDS011;53422;49.296;6.900;2022-08-19T08:45:00;13.85;;;8.82;;
66567;SDS011;53422;49.296;6.900;2022-08-19T08:47:34;13.88;;;8.60;;
66567;SDS011;53422;49.296;6.900;2022-08-19T08:50:16;14.95;;;9.20;;
66567;SDS011;53422;49.296;6.900;2022-08-19T08:52:48;10.82;;;7.28;;
66567;SDS011;53422;49.296;6.900;2022-08-19T08:55:20;14.20;;;8.52;;
66567;SDS011;53422;49.296;6.900;2022-08-19T09:00:22;13.10;;;8.70;;
66567;SDS011;53422;49.296;6.900;2022-08-19T09:02:53;12.48;;;8.02;;
66567;SDS011;53422;49.296;6.900;2022-08-19T09:05:20;15.57;;;8.75;;
66567;SDS011;53422;49.296;6.900;2022-08-19T09:08:02;9.95;;;6.85;;
66567;SDS011;53422;49.296;6.900;2022-08-19T09:13:31;12.15;;;7.63;;
66567;SDS011;53422;49.296;6.900;2022-08-19T09:21:04;9.73;;;7.03;;
66567;SDS011;53422;49.296;6.900;2022-08-19T09:23:29;9.88;;;6.07;;
66567;SDS011;53422;49.296;6.900;2022-08-19T09:25:55;9.30;;;6.53;;
66567;SDS011;53422;49.296;6.900;2022-08-19T09:28:21;8.23;;;5.97;;
66567;SDS011;53422;49.296;6.900;2022-08-19T09:30:46;8.77;;;6.25;;
66567;SDS011;53422;49.296;6.900;2022-08-19T09:33:12;8.13;;;5.07;;
66567;SDS011;53422;49.296;6.900;2022-08-19T09:35:37;6.70;;;4.97;;
66567;SDS011;53422;49.296;6.900;2022-08-19T09:38:03;9.93;;;5.60;;
66567;SDS011;53422;49.296;6.900;2022-08-19T09:40:29;9.38;;;6.63;;
66567;SDS011;53422;49.296;6.900;2022-08-19T09:42:55;9.98;;;7.00;;
66567;SDS011;53422;49.296;6.900;2022-08-19T09:45:22;9.02;;;5.78;;
66567;SDS011;53422;49.296;6.900;2022-08-19T09:47:49;10.25;;;6.40;;
66567;SDS011;53422;49.296;6.900;2022-08-19T09:50:16;10.35;;;6.80;;
66567;SDS011;53422;49.296;6.900;2022-08-19T09:52:43;9.38;;;5.20;;
66567;SDS011;53422;49.296;6.900;2022-08-19T09:55:09;9.27;;;5.65;;
66567;SDS011;53422;49.296;6.900;2022-08-19T09:57:36;9.75;;;5.38;;
66567;SDS011;53422;49.296;6.900;2022-08-19T10:00:03;7.72;;;5.50;;
66567;SDS011;53422;49.296;6.900;2022-08-19T10:02:30;9.13;;;4.72;;
66567;SDS011;53422;49.296;6.900;2022-08-19T10:04:55;8.45;;;5.43;;
66567;SDS011;53422;49.296;6.900;2022-08-19T10:07:39;7.22;;;5.18;;
66567;SDS011;53422;49.296;6.900;2022-08-19T10:10:06;9.57;;;4.82;;
66567;SDS011;53422;49.296;6.900;2022-08-19T10:12:33;6.75;;;5.05;;
66567;SDS011;53422;49.296;6.900;2022-08-19T10:14:59;5.70;;;4.57;;
66567;SDS011;53422;49.296;6.900;2022-08-19T10:17:25;6.45;;;4.65;;
66567;SDS011;53422;49.296;6.900;2022-08-19T10:19:51;7.18;;;5.15;;
66567;SDS011;53422;49.296;6.900;2022-08-19T10:22:17;7.15;;;4.35;;
66567;SDS011;53422;49.296;6.900;2022-08-19T10:24:45;6.38;;;4.47;;
66567;SDS011;53422;49.296;6.900;2022-08-19T10:27:11;6.95;;;3.88;;
66567;SDS011;53422;49.296;6.900;2022-08-19T10:29:38;5.07;;;3.88;;
66567;SDS011;53422;49.296;6.900;2022-08-19T10:32:04;10.95;;;4.88;;
66567;SDS011;53422;49.296;6.900;2022-08-19T10:34:33;8.10;;;4.32;;
66567;SDS011;53422;49.296;6.900;2022-08-19T10:37:01;6.03;;;4.70;;
66567;SDS011;53422;49.296;6.900;2022-08-19T10:39:35;7.88;;;4.80;;
66567;SDS011;53422;49.296;6.900;2022-08-19T10:42:04;8.57;;;5.57;;
66567;SDS011;53422;49.296;6.900;2022-08-19T10:44:31;7.43;;;4.70;;
66567;SDS011;53422;49.296;6.900;2022-08-19T10:47:00;6.55;;;4.97;;
66567;SDS011;53422;49.296;6.900;2022-08-19T10:49:48;6.43;;;4.30;;
66567;SDS011;53422;49.296;6.900;2022-08-19T10:52:33;6.63;;;4.97;;
66567;SDS011;53422;49.296;6.900;2022-08-19T10:54:59;5.47;;;3.83;;
66567;SDS011;53422;49.296;6.900;2022-08-19T10:57:44;6.75;;;3.33;;
66567;SDS011;53422;49.296;6.900;2022-08-19T11:00:10;3.75;;;3.10;;
66567;SDS011;53422;49.296;6.900;2022-08-19T11:02:36;5.07;;;3.40;;
66567;SDS011;53422;49.296;6.900;2022-08-19T11:05:02;6.20;;;3.97;;
66567;SDS011;53422;49.296;6.900;2022-08-19T11:07:28;5.72;;;4.13;;
66567;SDS011;53422;49.296;6.900;2022-08-19T11:09:54;6.45;;;4.53;;
66567;SDS011;53422;49.296;6.900;2022-08-19T11:12:19;4.55;;;3.50;;
66567;SDS011;53422;49.296;6.900;2022-08-19T11:14:45;5.80;;;4.10;;
66567;SDS011;53422;49.296;6.900;2022-08-19T11:17:10;8.88;;;4.30;;
66567;SDS011;53422;49.296;6.900;2022-08-19T11:19:38;8.57;;;3.90;;
66567;SDS011;53422;49.296;6.900;2022-08-19T11:22:07;5.82;;;3.97;;
66567;SDS011;53422;49.296;6.900;2022-08-19T11:24:34;6.47;;;4.03;;
66567;SDS011;53422;49.296;6.900;2022-08-19T11:27:03;5.32;;;4.25;;
66567;SDS011;53422;49.296;6.900;2022-08-19T11:29:34;4.95;;;3.63;;
66567;SDS011;53422;49.296;6.900;2022-08-19T11:32:03;6.32;;;3.97;;
66567;SDS011;53422;49.296;6.900;2022-08-19T11:34:31;6.60;;;4.43;;
66567;SDS011;53422;49.296;6.900;2022-08-19T11:36:57;6.40;;;4.60;;
66567;SDS011;53422;49.296;6.900;2022-08-19T11:39:24;7.22;;;4.90;;
66567;SDS011;53422;49.296;6.900;2022-08-19T11:41:51;7.47;;;4.30;;
66567;SDS011;53422;49.296;6.900;2022-08-19T11:44:17;7.25;;;5.10;;
66567;SDS011;53422;49.296;6.900;2022-08-19T11:46:43;6.65;;;4.70;;
66567;SDS011;53422;49.296;6.900;2022-08-19T11:49:11;6.63;;;4.97;;
66567;SDS011;53422;49.296;6.900;2022-08-19T11:51:38;7.20;;;5.10;;
66567;SDS011;53422;49.296;6.900;2022-08-19T11:54:05;8.85;;;5.82;;
66567;SDS011;53422;49.296;6.900;2022-08-19T11:56:31;8.82;;;6.20;;
66567;SDS011;53422;49.296;6.900;2022-08-19T11:58:57;9.13;;;5.93;;
66567;SDS011;53422;49.296;6.900;2022-08-19T12:01:23;10.23;;;7.10;;
66567;SDS011;53422;49.296;6.900;2022-08-19T12:03:51;10.68;;;7.25;;
66567;SDS011;53422;49.296;6.900;2022-08-19T12:06:20;11.15;;;7.68;;
66567;SDS011;53422;49.296;6.900;2022-08-19T12:08:50;11.13;;;7.85;;
66567;SDS011;53422;49.296;6.900;2022-08-19T12:11:16;9.32;;;6.80;;
66567;SDS011;53422;49.296;6.900;2022-08-19T12:13:42;9.43;;;7.22;;
66567;SDS011;53422;49.296;6.900;2022-08-19T12:16:22;16.05;;;6.78;;
66567;SDS011;53422;49.296;6.900;2022-08-19T12:18:51;9.80;;;6.43;;
66567;SDS011;53422;49.296;6.900;2022-08-19T12:21:21;10.30;;;6.90;;
66567;SDS011;53422;49.296;6.900;2022-08-19T12:23:53;11.05;;;6.80;;
66567;SDS011;53422;49.296;6.900;2022-08-19T12:26:19;10.00;;;6.55;;
66567;SDS011;53422;49.296;6.900;2022-08-19T12:28:45;9.38;;;6.78;;
66567;SDS011;53422;49.296;6.900;2022-08-19T12:31:31;8.98;;;7.00;;
66567;SDS011;53422;49.296;6.900;2022-08-19T12:33:57;8.25;;;6.57;;
66567;SDS011;53422;49.296;6.900;2022-08-19T12:36:24;10.30;;;6.20;;
66567;SDS011;53422;49.296;6.900;2022-08-19T12:38:50;8.73;;;6.88;;
66567;SDS011;53422;49.296;6.900;2022-08-19T12:41:16;8.80;;;6.65;;
66567;SDS011;53422;49.296;6.900;2022-08-19T12:43:43;9.40;;;6.45;;
66567;SDS011;53422;49.296;6.900;2022-08-19T12:46:09;10.73;;;6.82;;
66567;SDS011;53422;49.296;6.900;2022-08-19T12:48:35;8.27;;;5.82;;
66567;SDS011;53422;49.296;6.900;2022-08-19T12:51:06;10.90;;;6.30;;
66567;SDS011;53422;49.296;6.900;2022-08-19T12:53:33;8.48;;;6.47;;
66567;SDS011;53422;49.296;6.900;2022-08-19T12:55:59;9.45;;;6.63;;
66567;SDS011;53422;49.296;6.900;2022-08-19T12:58:25;13.48;;;7.30;;
66567;SDS011;53422;49.296;6.900;2022-08-19T13:00:51;9.88;;;6.32;;
66567;SDS011;53422;49.296;6.900;2022-08-19T13:03:17;9.05;;;6.00;;
66567;SDS011;53422;49.296;6.900;2022-08-19T13:05:43;9.93;;;6.18;;
66567;SDS011;53422;49.296;6.900;2022-08-19T13:08:08;8.88;;;6.43;;
66567;SDS011;53422;49.296;6.900;2022-08-19T13:10:34;8.85;;;6.05;;
66567;SDS011;53422;49.296;6.900;2022-08-19T13:13:01;7.70;;;5.38;;
66567;SDS011;53422;49.296;6.900;2022-08-19T13:15:32;12.15;;;6.00;;
66567;SDS011;53422;49.296;6.900;2022-08-19T13:17:59;9.52;;;6.45;;
66567;SDS011;53422;49.296;6.900;2022-08-19T13:20:25;9.20;;;5.45;;
66567;SDS011;53422;49.296;6.900;2022-08-19T13:22:51;9.02;;;6.10;;
66567;SDS011;53422;49.296;6.900;2022-08-19T13:25:17;8.00;;;6.28;;
66567;SDS011;53422;49.296;6.900;2022-08-19T13:27:45;7.45;;;5.20;;
66567;SDS011;53422;49.296;6.900;2022-08-19T13:30:13;7.63;;;5.05;;
66567;SDS011;53422;49.296;6.900;2022-08-19T13:32:59;10.77;;;5.65;;
66567;SDS011;53422;49.296;6.900;2022-08-19T13:38:18;6.07;;;4.68;;
66567;SDS011;53422;49.296;6.900;2022-08-19T13:40:45;7.05;;;4.97;;
66567;SDS011;53422;49.296;6.900;2022-08-19T13:43:12;7.82;;;4.93;;
66567;SDS011;53422;49.296;6.900;2022-08-19T13:45:38;7.25;;;5.20;;
66567;SDS011;53422;49.296;6.900;2022-08-19T13:48:05;6.80;;;4.43;;
66567;SDS011;53422;49.296;6.900;2022-08-19T13:50:33;6.28;;;3.83;;
66567;SDS011;53422;49.296;6.900;2022-08-19T13:53:09;4.97;;;4.18;;
66567;SDS011;53422;49.296;6.900;2022-08-19T13:55:40;5.47;;;4.20;;
66567;SDS011;53422;49.296;6.900;2022-08-19T13:58:07;6.05;;;4.47;;
66567;SDS011;53422;49.296;6.900;2022-08-19T14:00:34;5.10;;;3.50;;
66567;SDS011;53422;49.296;6.900;2022-08-19T14:03:03;5.97;;;3.92;;
66567;SDS011;53422;49.296;6.900;2022-08-19T14:05:29;5.57;;;3.42;;
66567;SDS011;53422;49.296;6.900;2022-08-19T14:07:55;6.30;;;4.22;;
66567;SDS011;53422;49.296;6.900;2022-08-19T14:10:21;5.10;;;3.70;;
66567;SDS011;53422;49.296;6.900;2022-08-19T14:12:48;6.45;;;3.50;;
66567;SDS011;53422;49.296;6.900;2022-08-19T14:15:14;5.95;;;3.83;;
66567;SDS011;53422;49.296;6.900;2022-08-19T14:17:41;5.28;;;4.20;;
66567;SDS011;53422;49.296;6.900;2022-08-19T14:20:09;4.63;;;3.60;;
66567;SDS011;53422;49.296;6.900;2022-08-19T14:22:36;6.75;;;3.67;;
66567;SDS011;53422;49.296;6.900;2022-08-19T14:25:04;5.03;;;3.38;;
66567;SDS011;53422;49.296;6.900;2022-08-19T14:27:40;4.32;;;3.40;;
66567;SDS011;53422;49.296;6.900;2022-08-19T14:30:07;6.75;;;3.35;;
66567;SDS011;53422;49.296;6.900;2022-08-19T14:32:35;5.32;;;3.45;;
66567;SDS011;53422;49.296;6.900;2022-08-19T14:35:01;6.88;;;3.85;;
66567;SDS011;53422;49.296;6.900;2022-08-19T14:37:27;4.32;;;3.10;;
66567;SDS011;53422;49.296;6.900;2022-08-19T14:39:53;6.50;;;3.42;;
66567;SDS011;53422;49.296;6.900;2022-08-19T14:42:18;4.35;;;2.80;;
66567;SDS011;53422;49.296;6.900;2022-08-19T14:44:44;4.60;;;2.70;;
66567;SDS011;53422;49.296;6.900;2022-08-19T14:47:10;5.22;;;3.03;;
66567;SDS011;53422;49.296;6.900;2022-08-19T14:49:36;5.43;;;2.90;;
66567;SDS011;53422;49.296;6.900;2022-08-19T14:52:02;3.78;;;2.80;;
66567;SDS011;53422;49.296;6.900;2022-08-19T14:54:29;3.92;;;3.08;;
66567;SDS011;53422;49.296;6.900;2022-08-19T14:56:55;6.32;;;3.20;;
66567;SDS011;53422;49.296;6.900;2022-08-19T14:59:20;5.75;;;3.10;;
66567;SDS011;53422;49.296;6.900;2022-08-19T15:01:46;3.70;;;2.70;;
66567;SDS011;53422;49.296;6.900;2022-08-19T15:04:12;4.15;;;2.97;;
66567;SDS011;53422;49.296;6.900;2022-08-19T15:06:38;4.50;;;2.30;;
66567;SDS011;53422;49.296;6.900;2022-08-19T15:09:04;4.07;;;2.67;;
66567;SDS011;53422;49.296;6.900;2022-08-19T15:11:30;3.67;;;2.50;;